MDT,Max TemperatureF,Mean TemperatureF,Min TemperatureF,Max Dew PointF,MeanDew PointF,Min DewpointF,Max Humidity, Mean Humidity, Min Humidity, Max Sea Level PressureIn, Mean Sea Level PressureIn, Min Sea Level PressureIn, Max VisibilityMiles, Mean VisibilityMiles, Min VisibilityMiles, Max Wind SpeedMPH, Mean Wind SpeedMPH, Max Gust SpeedMPH,PrecipitationIn, CloudCover, Events, WindDirDegrees
2013-10-1,59,46,33,34,29,27,75,55,35,30.06,29.99,29.96,10,10,10,20,6,24,0.00,3,,276
2013-10-2,55,46,37,36,27,23,62,46,30,30.20,30.08,29.99,10,10,6,20,6,24,0.03,1,Rain,257
2013-10-3,41,39,36,36,31,29,85,75,64,30.48,30.21,29.96,10,10,6,24,13,29,0.22,8,Rain,341
2013-10-4,51,42,33,32,28,24,82,60,38,30.58,30.51,30.40,10,10,10,13,4,16,0.01,4,Rain,256
2013-10-5,64,46,27,33,26,16,85,51,16,30.49,30.41,30.33,10,10,10,18,4,23,0.00,0,,245
2013-10-6,69,50,30,37,32,28,85,56,27,30.38,30.24,30.08,10,10,10,13,3,16,0.00,0,,145
2013-10-7,73,54,34,34,30,25,76,47,17,30.06,29.87,29.72,10,10,10,25,6,35,0.00,0,,266
2013-10-8,56,45,33,29,26,21,64,45,26,30.02,29.89,29.83,10,10,10,23,10,31,0.00,2,,262
2013-10-9,57,45,33,34,31,26,76,57,38,30.15,30.03,29.91,10,10,10,10,5,15,0.00,2,,304
2013-10-10,59,44,28,33,28,21,92,58,24,29.93,29.85,29.75,10,8,0,17,6,23,0.00,3,Fog,296
2013-10-11,56,45,33,30,24,19,57,41,24,30.11,30.04,29.90,10,10,10,23,8,28,0.00,4,,268
2013-10-12,51,40,28,29,25,22,78,59,39,30.21,30.15,30.12,10,10,10,9,2,10,0.00,2,,244
2013-10-13,52,42,32,32,30,27,78,61,44,30.28,30.23,30.17,10,10,10,16,7,21,0.00,5,,292
2013-10-14,49,41,32,34,30,25,76,58,39,30.51,30.40,30.27,10,10,10,16,8,18,0.01,6,Rain,309
2013-10-15,56,40,23,31,24,18,88,55,22,30.52,30.38,30.21,10,10,1,15,3,18,0.00,0,,202
2013-10-16,44,36,28,36,29,22,82,69,55,30.32,30.23,30.14,10,10,5,10,3,13,0.03,6,Rain,289
2013-10-17,47,40,32,34,31,28,96,78,60,30.38,30.30,30.19,10,10,7,20,4,23,0.02,7,Rain,258
2013-10-18,58,42,25,30,26,22,92,59,25,30.38,30.26,30.12,10,10,10,20,5,25,0.00,0,,259
2013-10-19,62,53,43,28,24,22,49,36,23,30.10,30.04,29.95,10,10,10,25,10,31,0.00,3,,286
2013-10-20,58,47,36,35,32,28,73,53,33,30.17,30.13,30.07,10,10,10,15,3,20,0.00,4,,319
2013-10-21,64,48,32,35,32,28,85,60,34,30.29,30.21,30.15,10,10,10,14,2,17,0.00,0,,219
2013-10-22,68,50,31,36,32,29,89,57,24,30.30,30.21,30.13,10,10,9,9,1,12,0.00,0,,28
2013-10-23,63,47,30,34,30,26,85,59,32,30.31,30.25,30.20,10,10,10,10,3,12,0.00,0,,256
2013-10-24,61,46,31,35,32,27,89,63,36,30.33,30.25,30.17,10,10,10,7,1,7,0.00,0,,254
2013-10-25,66,47,28,33,29,26,85,55,24,30.35,30.30,30.21,10,10,9,8,1,9,0.00,0,,184
2013-10-26,68,48,28,30,24,18,78,46,14,30.41,30.28,30.12,10,10,10,15,3,20,0.00,0,,260
2013-10-27,56,42,28,29,25,22,75,54,32,30.28,30.06,29.89,10,9,2,30,9,39,T,4,Snow,340
2013-10-28,28,24,20,19,15,12,84,76,68,30.41,30.27,30.14,10,5,0,25,12,30,1.81,8,Fog-Snow,342
2013-10-29,33,26,19,22,17,13,84,71,58,30.30,30.15,30.04,10,10,10,12,3,14,0.00,4,,277
2013-10-30,50,34,17,27,21,13,84,60,36,30.08,30.03,29.96,10,10,9,17,4,23,0.00,1,,281
2013-10-31,50,45,39,30,26,22,60,50,40,30.10,30.00,29.94,10,10,10,31,14,40,0.00,3,,270